TimeEDT,TemperatureF,Dew PointF,Humidity,Sea Level PressureIn,VisibilityMPH,Wind Direction,Wind SpeedMPH,Gust SpeedMPH,PrecipitationIn,Events,Conditions,WindDirDegrees,DateUTC
12:53 AM,60.1,45.0,57,30.05,10.0,West,9.2,17.3,0.00,,Overcast,270,2012-10-05 04:53:00
1:53 AM,57.9,41.0,53,30.06,10.0,West,8.1,19.6,N/A,,Mostly Cloudy,280,2012-10-05 05:53:00
2:53 AM,55.0,41.0,59,30.06,10.0,West,6.9,-,N/A,,Clear,280,2012-10-05 06:53:00
4:53 AM,53.1,39.9,61,30.09,10.0,WNW,9.2,-,N/A,,Scattered Clouds,290,2012-10-05 08:53:00
5:53 AM,51.1,39.9,66,30.09,10.0,WNW,9.2,-,N/A,,Partly Cloudy,300,2012-10-05 09:53:00
6:22 AM,51.8,39.2,62,30.08,10.0,Variable,5.8,-,N/A,,Mostly Cloudy,0,2012-10-05 10:22:00
6:53 AM,51.1,39.9,66,30.09,10.0,West,4.6,-,N/A,,Overcast,280,2012-10-05 10:53:00
7:53 AM,50.0,39.0,66,30.09,10.0,West,5.8,-,N/A,,Mostly Cloudy,270,2012-10-05 11:53:00
8:53 AM,50.0,39.0,66,30.09,10.0,West,9.2,-,N/A,,Mostly Cloudy,280,2012-10-05 12:53:00
9:53 AM,53.1,39.9,61,30.10,10.0,WNW,10.4,-,N/A,,Overcast,290,2012-10-05 13:53:00
10:53 AM,53.1,39.0,59,30.09,10.0,West,11.5,18.4,N/A,,Mostly Cloudy,280,2012-10-05 14:53:00
11:53 AM,53.1,39.0,59,30.10,10.0,West,10.4,16.1,N/A,,Mostly Cloudy,280,2012-10-05 15:53:00
12:53 PM,55.0,39.0,55,30.09,10.0,WSW,11.5,-,N/A,,Mostly Cloudy,250,2012-10-05 16:53:00
1:10 PM,53.6,37.4,54,30.08,10.0,West,11.5,18.4,N/A,,Scattered Clouds,260,2012-10-05 17:10:00
1:53 PM,55.0,39.9,57,30.07,10.0,WSW,15.0,18.4,N/A,,Mostly Cloudy,240,2012-10-05 17:53:00
2:06 PM,53.6,39.2,58,30.07,10.0,SW,15.0,19.6,N/A,,Scattered Clouds,230,2012-10-05 18:06:00
2:53 PM,53.1,39.0,59,30.05,10.0,WSW,11.5,-,N/A,,Scattered Clouds,250,2012-10-05 18:53:00
3:53 PM,53.1,39.0,59,30.03,10.0,WSW,10.4,-,N/A,,Mostly Cloudy,250,2012-10-05 19:53:00
4:53 PM,52.0,37.9,59,29.97,10.0,WSW,13.8,-,N/A,,Mostly Cloudy,250,2012-10-05 20:53:00
5:53 PM,53.1,39.0,59,30.01,10.0,WSW,11.5,17.3,N/A,,Overcast,240,2012-10-05 21:53:00
6:53 PM,54.0,36.0,51,29.94,10.0,West,11.5,17.3,N/A,,Overcast,260,2012-10-05 22:53:00
7:53 PM,53.1,34.0,48,30.00,10.0,West,12.7,17.3,N/A,,Overcast,260,2012-10-05 23:53:00
8:53 PM,53.1,34.0,48,30.00,10.0,West,13.8,18.4,N/A,,Mostly Cloudy,280,2012-10-06 00:53:00
9:53 PM,52.0,33.1,49,29.94,10.0,West,10.4,17.3,N/A,,Mostly Cloudy,280,2012-10-06 01:53:00
10:53 PM,52.0,33.1,49,29.94,10.0,WNW,11.5,19.6,N/A,,Overcast,290,2012-10-06 02:53:00
11:53 PM,51.1,32.0,48,29.99,10.0,WNW,9.2,18.4,N/A,,Mostly Cloudy,290,2012-10-06 03:53:00